createdAt,value
2017-11-10T00:01:32.968Z,5.90
2017-11-10T00:04:01.426Z,6.00
2017-11-10T00:06:29.936Z,5.90
2017-11-10T00:08:58.250Z,5.90
2017-11-10T00:11:26.558Z,5.80
2017-11-10T00:13:55.290Z,5.80
2017-11-10T00:16:24.572Z,5.80
2017-11-10T00:18:53.071Z,5.70
2017-11-10T00:21:22.302Z,5.70
2017-11-10T00:23:50.905Z,5.70
2017-11-10T00:26:19.367Z,5.60
2017-11-10T00:28:47.976Z,5.60
2017-11-10T00:31:16.448Z,5.60
2017-11-10T00:33:45.757Z,5.50
2017-11-10T00:36:14.216Z,5.50
2017-11-10T00:38:42.700Z,5.60
2017-11-10T00:41:11.236Z,5.60
2017-11-10T00:43:40.306Z,5.60
2017-11-10T00:46:09.190Z,5.60
2017-11-10T00:48:37.689Z,5.60
2017-11-10T00:51:06.220Z,5.60
2017-11-10T00:53:35.494Z,5.60
2017-11-10T00:56:03.995Z,5.60
2017-11-10T00:58:33.303Z,5.60
2017-11-10T01:01:02.544Z,5.60
2017-11-10T01:03:31.007Z,5.60
2017-11-10T01:05:59.701Z,5.60
2017-11-10T01:08:28.205Z,5.70
2017-11-10T01:10:56.700Z,5.60
2017-11-10T01:13:25.171Z,5.60
2017-11-10T01:15:53.687Z,5.60
2017-11-10T01:18:22.177Z,5.60
2017-11-10T01:20:50.667Z,5.50
2017-11-10T01:23:19.927Z,5.50
2017-11-10T01:25:48.424Z,5.40
2017-11-10T01:28:16.936Z,5.40
2017-11-10T01:30:46.189Z,5.20
2017-11-10T01:33:14.660Z,5.10
2017-11-10T01:35:43.140Z,5.00
2017-11-10T01:38:11.624Z,4.90
2017-11-10T01:40:40.109Z,4.80
2017-11-10T01:43:08.593Z,4.80
2017-11-10T01:45:37.065Z,4.80
2017-11-10T01:48:15.467Z,4.80
2017-11-10T01:50:43.960Z,4.70
2017-11-10T01:53:12.458Z,4.70
2017-11-10T01:55:40.956Z,4.70
2017-11-10T01:58:09.477Z,4.60
2017-11-10T02:00:38.355Z,4.50
2017-11-10T02:03:06.682Z,4.50
2017-11-10T02:05:35.178Z,4.50
2017-11-10T02:08:03.300Z,4.50
2017-11-10T02:10:32.553Z,4.30
2017-11-10T02:13:01.043Z,4.30
2017-11-10T02:15:28.845Z,4.30
2017-11-10T02:17:58.221Z,4.30
2017-11-10T02:20:26.765Z,4.20
2017-11-10T02:22:54.538Z,4.30
2017-11-10T02:25:22.335Z,4.30
2017-11-10T02:27:50.569Z,4.30
2017-11-10T02:30:18.701Z,4.30
2017-11-10T02:32:46.832Z,4.20
2017-11-10T02:35:14.983Z,4.30
2017-11-10T02:37:43.117Z,4.20
2017-11-10T02:40:11.257Z,4.20
2017-11-10T02:42:40.052Z,4.30
2017-11-10T02:45:08.531Z,4.40
2017-11-10T02:47:37.269Z,4.50
2017-11-10T02:50:07.233Z,4.60
2017-11-10T02:52:35.715Z,4.60
2017-11-10T02:55:03.874Z,4.60
2017-11-10T02:57:31.989Z,4.60
2017-11-10T03:00:00.472Z,4.50
2017-11-10T03:02:28.951Z,4.50
2017-11-10T03:04:57.473Z,4.50
2017-11-10T03:07:26.716Z,4.60
2017-11-10T03:09:54.849Z,4.50
2017-11-10T03:12:23.394Z,4.60
2017-11-10T03:14:51.357Z,4.60
2017-11-10T03:17:19.286Z,4.60
2017-11-10T03:19:48.539Z,4.70
2017-11-10T03:22:17.015Z,4.60
2017-11-10T03:24:45.525Z,4.80
2017-11-10T03:27:14.085Z,4.70
2017-11-10T03:29:42.545Z,4.70
2017-11-10T03:32:11.055Z,4.80
2017-11-10T03:34:39.531Z,4.80
2017-11-10T03:37:08.026Z,4.70
2017-11-10T03:39:36.583Z,4.80
2017-11-10T03:42:05.307Z,4.80
2017-11-10T03:44:33.785Z,4.80
2017-11-10T03:47:01.700Z,4.60
2017-11-10T03:49:30.352Z,4.60
2017-11-10T03:51:58.836Z,4.60
2017-11-10T03:54:27.435Z,4.50
2017-11-10T03:56:56.336Z,4.50
2017-11-10T03:59:25.676Z,4.40
2017-11-10T04:01:54.139Z,4.40
2017-11-10T04:04:22.608Z,4.40
2017-11-10T04:06:52.165Z,4.50
2017-11-10T04:09:20.711Z,4.50
2017-11-10T04:11:48.850Z,4.50
2017-11-10T04:14:17.068Z,4.50
2017-11-10T04:16:45.532Z,4.40
2017-11-10T04:19:14.777Z,4.50
2017-11-10T04:21:43.269Z,4.40
2017-11-10T04:24:11.753Z,4.50
2017-11-10T04:26:40.222Z,4.50
2017-11-10T04:29:08.352Z,4.60
2017-11-10T04:31:37.236Z,4.70
2017-11-10T04:34:06.488Z,4.70
2017-11-10T04:36:34.765Z,4.70
2017-11-10T04:39:03.261Z,4.80
2017-11-10T04:41:31.740Z,4.80
2017-11-10T04:44:00.252Z,4.80
2017-11-10T04:46:28.724Z,4.80
2017-11-10T04:48:57.269Z,4.80
2017-11-10T04:51:25.806Z,4.90
2017-11-10T04:53:54.721Z,4.90
2017-11-10T04:56:23.231Z,4.80
2017-11-10T04:58:51.364Z,4.90
2017-11-10T05:01:20.608Z,4.90
2017-11-10T05:03:49.074Z,4.80
2017-11-10T05:06:17.545Z,4.90
2017-11-10T05:08:46.151Z,4.90
2017-11-10T05:11:14.622Z,4.90
2017-11-10T05:13:43.133Z,4.90
2017-11-10T05:16:11.637Z,4.80
2017-11-10T05:18:40.183Z,4.90
2017-11-10T05:21:08.335Z,4.90
2017-11-10T05:23:36.715Z,4.90
2017-11-10T05:26:04.844Z,4.90
2017-11-10T05:28:33.321Z,4.90
2017-11-10T05:31:02.612Z,4.80
2017-11-10T05:33:30.897Z,4.80
2017-11-10T05:35:58.673Z,4.80
2017-11-10T05:38:27.406Z,4.90
2017-11-10T05:40:55.965Z,4.90
2017-11-10T05:43:24.104Z,4.90
2017-11-10T05:45:52.445Z,5.00
2017-11-10T05:48:20.938Z,5.00
2017-11-10T05:50:49.213Z,5.10
2017-11-10T05:53:17.762Z,5.10
2017-11-10T05:55:46.813Z,5.00
2017-11-10T05:58:15.096Z,5.00
2017-11-10T06:00:43.042Z,5.00
2017-11-10T06:03:10.958Z,5.00
2017-11-10T06:05:38.773Z,5.10
2017-11-10T06:08:06.885Z,5.10
2017-11-10T06:10:35.043Z,5.10
2017-11-10T06:13:04.328Z,5.00
2017-11-10T06:15:32.914Z,5.10
2017-11-10T06:18:01.386Z,5.10
2017-11-10T06:20:29.886Z,5.10
2017-11-10T06:22:58.791Z,5.10
2017-11-10T06:25:27.254Z,5.10
2017-11-10T06:27:55.784Z,5.10
2017-11-10T06:30:24.780Z,5.10
2017-11-10T06:32:53.272Z,5.20
2017-11-10T06:35:21.748Z,5.20
2017-11-10T06:37:50.276Z,5.20
2017-11-10T06:40:18.472Z,5.20
2017-11-10T06:42:46.972Z,5.20
2017-11-10T06:45:15.732Z,5.20
2017-11-10T06:47:44.196Z,5.20
2017-11-10T06:50:12.739Z,5.20
2017-11-10T06:52:41.240Z,5.20
2017-11-10T06:55:09.705Z,5.20
2017-11-10T06:57:38.183Z,5.20
2017-11-10T07:00:06.480Z,5.10
2017-11-10T07:02:34.957Z,5.20
2017-11-10T07:05:03.224Z,5.30
2017-11-10T07:07:31.794Z,5.30
2017-11-10T07:10:00.072Z,5.30
2017-11-10T07:12:28.377Z,5.30
2017-11-10T07:14:56.851Z,5.30
2017-11-10T07:17:25.340Z,5.30
2017-11-10T07:19:53.741Z,5.30
2017-11-10T07:22:22.809Z,5.30
2017-11-10T07:24:51.311Z,5.30
2017-11-10T07:27:20.760Z,5.30
2017-11-10T07:29:49.245Z,5.30
2017-11-10T07:32:17.749Z,5.40
2017-11-10T07:34:46.232Z,5.40
2017-11-10T07:37:14.708Z,5.40
2017-11-10T07:39:43.213Z,5.40
2017-11-10T07:42:12.510Z,5.50
2017-11-10T07:44:41.001Z,5.50
2017-11-10T07:47:09.491Z,5.50
2017-11-10T07:49:38.761Z,5.60
2017-11-10T07:52:07.261Z,5.50
2017-11-10T07:54:35.726Z,5.60
2017-11-10T07:57:04.012Z,5.60
2017-11-10T07:59:32.385Z,5.60
2017-11-10T08:02:00.684Z,5.70
2017-11-10T08:04:29.255Z,5.60
2017-11-10T08:06:57.764Z,5.70
2017-11-10T08:09:26.641Z,5.70
2017-11-10T08:11:55.149Z,5.70
2017-11-10T08:14:24.499Z,5.80
2017-11-10T08:16:52.972Z,5.70
2017-11-10T08:19:21.448Z,5.90
2017-11-10T08:21:49.953Z,5.80
2017-11-10T08:24:18.445Z,5.80
2017-11-10T08:26:47.016Z,5.80
2017-11-10T08:29:15.327Z,5.80
2017-11-10T08:31:44.585Z,5.70
2017-11-10T08:34:12.868Z,5.70
2017-11-10T08:36:41.349Z,5.80
2017-11-10T08:39:09.886Z,5.70
2017-11-10T08:41:38.777Z,5.70
2017-11-10T08:44:08.064Z,5.70
2017-11-10T08:46:36.524Z,5.60
2017-11-10T08:49:05.278Z,5.70
2017-11-10T08:51:34.689Z,5.60
2017-11-10T08:54:03.192Z,5.60
2017-11-10T08:56:31.692Z,5.60
2017-11-10T08:59:00.173Z,5.60
2017-11-10T09:01:28.748Z,5.50
2017-11-10T09:03:57.225Z,5.50
2017-11-10T09:06:25.693Z,5.50
2017-11-10T09:08:53.989Z,5.50
2017-11-10T09:11:22.459Z,5.40
2017-11-10T09:13:50.949Z,5.40
2017-11-10T09:16:19.435Z,5.40
2017-11-10T09:18:47.720Z,5.40
2017-11-10T09:21:16.005Z,5.50
2017-11-10T09:23:44.345Z,5.50
2017-11-10T09:26:11.927Z,5.50
2017-11-10T09:28:43.109Z,5.40
2017-11-10T09:31:16.592Z,5.40
2017-11-10T09:33:45.776Z,5.40
2017-11-10T09:36:34.724Z,3.40
2017-11-10T09:39:14.840Z,5.40
2017-11-10T09:41:43.380Z,5.40
2017-11-10T09:44:26.876Z,5.40
2017-11-10T09:47:05.106Z,5.50
2017-11-10T09:49:39.077Z,5.60
2017-11-10T09:52:26.072Z,5.60
2017-11-10T09:55:01.722Z,5.70
2017-11-10T09:57:35.470Z,5.60
2017-11-10T10:00:09.800Z,5.70
2017-11-10T10:02:43.788Z,5.70
2017-11-10T10:05:14.445Z,5.70
2017-11-10T10:07:48.711Z,5.60
2017-11-10T10:10:19.841Z,5.80
2017-11-10T10:12:50.877Z,5.80
2017-11-10T10:15:19.954Z,5.80
2017-11-10T10:18:03.133Z,5.80
2017-11-10T10:20:38.207Z,5.90
2017-11-10T10:23:06.622Z,5.90
2017-11-10T10:25:34.945Z,6.00
2017-11-10T10:28:03.456Z,5.90
2017-11-10T10:30:31.753Z,5.90
2017-11-10T10:33:00.219Z,5.90
2017-11-10T10:35:28.019Z,5.90
2017-11-10T10:37:56.139Z,5.90
2017-11-10T10:40:24.268Z,5.90
2017-11-10T10:42:52.766Z,5.90
2017-11-10T10:45:21.230Z,5.90
2017-11-10T10:47:49.713Z,5.90
2017-11-10T10:50:17.467Z,5.80
2017-11-10T10:52:45.948Z,5.80
2017-11-10T10:55:14.428Z,5.70
2017-11-10T10:57:42.918Z,5.60
2017-11-10T11:00:11.688Z,5.60
2017-11-10T11:02:40.180Z,5.60
2017-11-10T11:05:08.659Z,5.50
2017-11-10T11:07:37.155Z,5.30
2017-11-10T11:10:05.628Z,5.30
2017-11-10T11:12:34.155Z,5.20
2017-11-10T11:15:03.048Z,5.10
2017-11-10T11:17:32.288Z,5.10
2017-11-10T11:20:00.793Z,5.10
2017-11-10T11:22:29.258Z,5.00
2017-11-10T11:24:57.880Z,5.10
2017-11-10T11:27:26.393Z,5.00
2017-11-10T11:29:55.641Z,5.00
2017-11-10T11:32:24.110Z,4.90
2017-11-10T11:34:52.620Z,7.40
2017-11-10T11:37:21.110Z,4.90
2017-11-10T11:39:50.358Z,4.90
2017-11-10T11:42:18.832Z,4.90
2017-11-10T11:44:47.334Z,4.90
2017-11-10T11:47:15.932Z,4.90
2017-11-10T11:49:44.408Z,4.90
2017-11-10T11:52:12.888Z,4.90
2017-11-10T11:54:41.007Z,4.90
2017-11-10T11:57:09.169Z,4.90
2017-11-10T11:59:37.648Z,4.90
2017-11-10T12:02:05.788Z,4.80
2017-11-10T12:04:34.280Z,4.90
2017-11-10T12:07:02.980Z,5.00
2017-11-10T12:09:31.465Z,5.00
2017-11-10T12:11:59.942Z,5.10
2017-11-10T12:14:28.459Z,5.10
2017-11-10T12:16:56.947Z,5.20
2017-11-10T12:19:25.677Z,5.20
2017-11-10T12:21:53.460Z,5.20
2017-11-10T12:24:21.435Z,5.20
2017-11-10T12:26:49.921Z,5.20
2017-11-10T12:29:18.425Z,5.40
2017-11-10T12:31:46.554Z,5.30
2017-11-10T12:34:14.696Z,5.40
2017-11-10T12:36:43.942Z,5.40
2017-11-10T12:39:12.896Z,5.30
2017-11-10T12:41:41.907Z,5.50
2017-11-10T12:44:10.387Z,5.50
2017-11-10T12:46:38.875Z,5.50
2017-11-10T12:49:07.068Z,5.40
2017-11-10T12:51:35.546Z,5.50
2017-11-10T12:54:03.726Z,5.40
2017-11-10T12:56:32.028Z,5.40
2017-11-10T12:59:00.529Z,5.40
2017-11-10T13:01:29.113Z,5.40
2017-11-10T13:03:58.359Z,5.40
2017-11-10T13:06:26.851Z,5.40
2017-11-10T13:08:55.321Z,5.50
2017-11-10T13:11:24.150Z,5.50
2017-11-10T13:13:52.101Z,5.40
2017-11-10T13:16:20.412Z,5.40
2017-11-10T13:18:48.599Z,5.40
2017-11-10T13:21:17.473Z,5.30
2017-11-10T13:23:45.763Z,5.30
2017-11-10T13:26:14.045Z,5.30
2017-11-10T13:28:42.590Z,5.30
2017-11-10T13:31:11.985Z,5.20
2017-11-10T13:33:40.489Z,5.20
2017-11-10T13:36:08.961Z,5.30
2017-11-10T13:38:37.556Z,5.30
2017-11-10T13:41:06.030Z,5.30
2017-11-10T13:43:34.492Z,5.40
2017-11-10T13:46:02.988Z,5.30
2017-11-10T13:48:31.466Z,5.30
2017-11-10T13:50:59.960Z,5.40
2017-11-10T13:53:28.434Z,5.40
2017-11-10T13:55:56.937Z,5.40
2017-11-10T13:58:25.450Z,5.40
2017-11-10T14:00:54.706Z,5.40
2017-11-10T14:03:23.238Z,5.30
2017-11-10T14:05:52.477Z,5.40
2017-11-10T14:08:20.965Z,5.30
2017-11-10T14:10:49.626Z,5.40
2017-11-10T14:13:18.102Z,5.40
2017-11-10T14:15:47.442Z,5.40
2017-11-10T14:18:15.926Z,5.30
2017-11-10T14:20:44.219Z,5.50
2017-11-10T14:23:12.725Z,5.50
2017-11-10T14:25:41.010Z,5.40
2017-11-10T14:28:10.259Z,5.50
2017-11-10T14:30:38.861Z,5.40
2017-11-10T14:33:07.356Z,5.50
2017-11-10T14:35:35.828Z,5.50
2017-11-10T14:38:04.324Z,5.50
2017-11-10T14:40:33.595Z,5.50
2017-11-10T14:43:02.093Z,5.40
2017-11-10T14:45:30.572Z,5.40
2017-11-10T14:48:00.054Z,5.50
2017-11-10T14:50:28.554Z,5.40
2017-11-10T14:52:57.038Z,5.40
2017-11-10T14:55:25.513Z,5.40
2017-11-10T14:57:53.986Z,5.40
2017-11-10T15:00:22.478Z,5.40
2017-11-10T15:02:50.965Z,5.30
2017-11-10T15:05:19.449Z,5.30
2017-11-10T15:07:47.924Z,5.30
2017-11-10T15:10:16.053Z,5.30
2017-11-10T15:12:45.297Z,5.40
2017-11-10T15:15:13.789Z,5.30
2017-11-10T15:17:42.344Z,5.30
2017-11-10T15:20:10.830Z,5.40
2017-11-10T15:22:39.289Z,5.30
2017-11-10T15:25:08.544Z,5.40
2017-11-10T15:27:37.033Z,5.30
2017-11-10T15:30:05.513Z,5.40
2017-11-10T15:32:34.014Z,5.40
2017-11-10T15:35:02.501Z,5.30
2017-11-10T15:37:30.988Z,5.40
2017-11-10T15:39:59.477Z,5.40
2017-11-10T15:42:28.032Z,5.40
2017-11-10T15:44:56.520Z,5.30
2017-11-10T15:47:25.002Z,5.40
2017-11-10T15:49:53.298Z,5.40
2017-11-10T15:52:21.804Z,5.40
2017-11-10T15:54:50.113Z,5.30
2017-11-10T15:57:18.587Z,5.30
2017-11-10T15:59:46.866Z,5.20
2017-11-10T16:02:15.161Z,5.20
2017-11-10T16:04:43.676Z,5.20
2017-11-10T16:07:13.410Z,5.20
2017-11-10T16:09:42.636Z,5.10
2017-11-10T16:12:11.160Z,5.10
2017-11-10T16:14:39.673Z,5.20
2017-11-10T16:17:08.913Z,5.20
2017-11-10T16:19:37.423Z,5.20
2017-11-10T16:22:05.900Z,5.30
2017-11-10T16:24:34.360Z,5.20
2017-11-10T16:27:02.908Z,5.20
2017-11-10T16:29:32.148Z,5.40
2017-11-10T16:32:00.633Z,5.30
2017-11-10T16:34:29.119Z,5.30
2017-11-10T16:36:57.707Z,5.30
2017-11-10T16:39:26.296Z,5.30
2017-11-10T16:41:54.744Z,5.30
2017-11-10T16:44:23.490Z,5.30
2017-11-10T16:46:53.520Z,5.20
2017-11-10T16:49:22.789Z,5.30
2017-11-10T16:51:51.341Z,5.30
2017-11-10T16:54:19.581Z,5.30
2017-11-10T16:56:48.820Z,5.30
2017-11-10T16:59:17.366Z,5.30
2017-11-10T17:01:46.609Z,5.40
2017-11-10T17:04:15.362Z,5.30
2017-11-10T17:06:44.652Z,5.40
2017-11-10T17:09:13.147Z,5.40
2017-11-10T17:11:42.432Z,5.40
2017-11-10T17:14:11.698Z,5.40
2017-11-10T17:16:40.187Z,5.40
2017-11-10T17:19:08.666Z,5.40
2017-11-10T17:21:37.148Z,5.30
2017-11-10T17:24:05.678Z,5.30
2017-11-10T17:26:34.556Z,5.40
2017-11-10T17:29:03.046Z,5.30
2017-11-10T17:31:32.292Z,5.40
2017-11-10T17:34:00.424Z,5.30
2017-11-10T17:36:29.296Z,5.40
2017-11-10T17:38:57.782Z,5.40
2017-11-10T17:41:28.594Z,5.50
2017-11-10T17:43:57.432Z,5.50
2017-11-10T17:46:26.673Z,5.50
2017-11-10T17:48:55.173Z,5.40
2017-11-10T17:51:23.561Z,5.60
2017-11-10T17:53:52.061Z,5.50
2017-11-10T17:56:20.568Z,5.50
2017-11-10T17:58:49.818Z,5.60
2017-11-10T18:01:18.293Z,5.60
2017-11-10T18:03:46.780Z,5.60
2017-11-10T18:06:16.083Z,5.60
2017-11-10T18:08:44.577Z,5.60
2017-11-10T18:11:13.197Z,5.70
2017-11-10T18:13:42.562Z,5.60
2017-11-10T18:16:11.181Z,5.60
2017-11-10T18:18:40.442Z,5.70
2017-11-10T18:21:08.864Z,5.60
2017-11-10T18:23:38.136Z,5.70
2017-11-10T18:26:06.598Z,5.70
2017-11-10T18:28:34.717Z,5.80
2017-11-10T18:31:03.197Z,5.70
2017-11-10T18:33:32.462Z,5.80
2017-11-10T18:36:00.946Z,5.70
2017-11-10T18:38:29.468Z,5.70
2017-11-10T18:40:58.625Z,5.70
2017-11-10T18:43:26.941Z,5.70
2017-11-10T18:45:56.392Z,5.60
2017-11-10T18:48:31.197Z,5.60
2017-11-10T18:51:00.457Z,5.70
2017-11-10T18:53:28.928Z,5.60
2017-11-10T18:55:57.447Z,5.70
2017-11-10T18:58:26.700Z,5.70
2017-11-10T19:00:55.189Z,5.70
2017-11-10T19:03:23.665Z,5.80
2017-11-10T19:05:51.519Z,5.70
2017-11-10T19:08:19.309Z,5.70
2017-11-10T19:10:47.823Z,5.80
2017-11-10T19:13:16.291Z,5.80
2017-11-10T19:15:44.761Z,5.70
2017-11-10T19:18:13.253Z,5.70
2017-11-10T19:20:41.769Z,5.80
2017-11-10T19:23:11.053Z,5.70
2017-11-10T19:25:39.562Z,5.70
2017-11-10T19:28:07.726Z,5.80
2017-11-10T19:30:36.979Z,5.80
2017-11-10T19:33:05.553Z,5.80
2017-11-10T19:35:34.045Z,5.80
2017-11-10T19:38:02.490Z,5.80
2017-11-10T19:40:30.965Z,5.80
2017-11-10T19:43:00.266Z,5.90
2017-11-10T19:45:28.777Z,5.90
2017-11-10T19:47:57.288Z,5.90
2017-11-10T19:50:25.808Z,5.90
2017-11-10T19:52:55.077Z,5.90
2017-11-10T19:55:23.550Z,5.80
2017-11-10T19:57:52.070Z,6.00
2017-11-10T20:00:21.308Z,6.00
2017-11-10T20:02:49.595Z,5.90
2017-11-10T20:05:18.182Z,6.10
2017-11-10T20:07:46.653Z,6.10
2017-11-10T20:10:15.152Z,6.00
2017-11-10T20:12:43.627Z,6.00
2017-11-10T20:15:12.190Z,5.90
2017-11-10T20:17:40.734Z,5.90
2017-11-10T20:20:09.248Z,5.90
2017-11-10T20:22:37.610Z,5.90
2017-11-10T20:25:06.870Z,5.80
2017-11-10T20:27:35.449Z,5.80
2017-11-10T20:30:03.649Z,5.80
2017-11-10T20:32:32.153Z,5.80
2017-11-10T20:35:00.616Z,5.80
2017-11-10T20:37:29.113Z,5.80
2017-11-10T20:39:58.377Z,5.80
2017-11-10T20:42:26.880Z,5.80
2017-11-10T20:44:55.183Z,5.80
2017-11-10T20:47:24.502Z,5.90
2017-11-10T20:49:52.993Z,5.80
2017-11-10T20:52:21.481Z,5.90
2017-11-10T20:54:50.046Z,5.80
2017-11-10T20:57:18.593Z,5.90
2017-11-10T20:59:47.475Z,5.80
2017-11-10T21:02:15.970Z,6.00
2017-11-10T21:04:44.372Z,5.90
2017-11-10T21:07:13.634Z,5.90
2017-11-10T21:09:42.132Z,5.90
2017-11-10T21:12:10.284Z,5.90
2017-11-10T21:14:38.808Z,6.00
2017-11-10T21:17:07.395Z,5.90
2017-11-10T21:19:35.866Z,6.00
2017-11-10T21:22:04.584Z,6.00
2017-11-10T21:24:33.873Z,6.00
2017-11-10T21:27:03.103Z,6.00
2017-11-10T21:29:31.566Z,6.00
2017-11-10T21:32:00.806Z,6.00
2017-11-10T21:34:29.281Z,6.00
2017-11-10T21:36:57.777Z,6.00
2017-11-10T21:39:26.259Z,6.00
2017-11-10T21:41:54.759Z,6.00
2017-11-10T21:44:23.223Z,6.00
2017-11-10T21:46:51.763Z,6.00
2017-11-10T21:49:20.993Z,6.00
2017-11-10T21:51:49.483Z,6.00
2017-11-10T21:54:17.960Z,6.10
2017-11-10T21:56:46.265Z,6.00
2017-11-10T21:59:14.740Z,6.00
2017-11-10T22:01:43.261Z,6.00
2017-11-10T22:04:12.533Z,6.00
2017-11-10T22:06:41.017Z,6.00
2017-11-10T22:09:09.509Z,6.00
2017-11-10T22:11:37.993Z,6.00
2017-11-10T22:14:06.461Z,6.00
2017-11-10T22:16:34.975Z,6.00
2017-11-10T22:19:04.306Z,6.00
2017-11-10T22:21:32.809Z,5.90
2017-11-10T22:24:01.281Z,6.00
2017-11-10T22:26:29.800Z,6.00
2017-11-10T22:28:58.288Z,6.00
2017-11-10T22:31:26.761Z,6.00
2017-11-10T22:33:55.268Z,6.00
2017-11-10T22:36:23.742Z,6.00
2017-11-10T22:38:52.215Z,6.00
2017-11-10T22:41:20.716Z,6.00
2017-11-10T22:43:49.986Z,6.00
2017-11-10T22:46:18.467Z,6.00
2017-11-10T22:48:46.937Z,6.00
2017-11-10T22:51:16.339Z,6.00
2017-11-10T22:53:44.810Z,6.00
2017-11-10T22:56:13.301Z,6.10
2017-11-10T22:58:41.857Z,6.00
2017-11-10T23:01:10.352Z,6.10
2017-11-10T23:03:38.838Z,6.10
2017-11-10T23:06:07.627Z,6.10
2017-11-10T23:08:36.088Z,6.10
2017-11-10T23:11:05.190Z,6.10
2017-11-10T23:13:33.661Z,6.00
2017-11-10T23:16:02.936Z,6.10
2017-11-10T23:18:31.401Z,6.10
2017-11-10T23:21:00.006Z,6.10
2017-11-10T23:23:28.516Z,6.10
2017-11-10T23:25:57.812Z,6.10
2017-11-10T23:28:27.052Z,6.00
2017-11-10T23:30:55.579Z,6.00
2017-11-10T23:33:24.120Z,6.00
2017-11-10T23:35:52.596Z,6.00
2017-11-10T23:38:21.084Z,5.90
2017-11-10T23:40:49.574Z,5.90
2017-11-10T23:43:18.169Z,5.80
2017-11-10T23:45:46.665Z,5.80
2017-11-10T23:48:15.135Z,5.80
2017-11-10T23:50:43.617Z,5.80
2017-11-10T23:53:12.088Z,5.70
2017-11-10T23:55:40.586Z,5.50
2017-11-10T23:58:09.055Z,5.30
